Time;durP1;ratioP1;P1;durP2;ratioP2;P2;SDS_P1;SDS_P2;PMS_P1;PMS_P2;Temp;Humidity;BMP_temperature;BMP_pressure;BME280_temperature;BME280_humidity;BME280_pressure;Samples;Min_cycle;Max_cycle;Signal;HPM_P1;HPM_P2
2022/06/30 00:02:24;;;;;;;27.95;15.13;;;;;;;20.35;72.33;100705.00;5055945;28;20056;-57
2022/06/30 00:04:51;;;;;;;26.42;15.15;;;;;;;20.32;72.54;100702.78;5055030;28;20037;-57
2022/06/30 00:07:18;;;;;;;24.90;14.35;;;;;;;20.33;72.18;100696.31;5055757;28;20044;-57
2022/06/30 00:09:44;;;;;;;24.08;15.05;;;;;;;20.31;72.10;100693.84;5055769;28;20398;-56
2022/06/30 00:12:11;;;;;;;26.63;15.02;;;;;;;20.29;71.71;100698.63;5055927;28;20099;-56
2022/06/30 00:14:39;;;;;;;23.42;14.95;;;;;;;20.30;71.67;100696.75;5056062;28;20048;-56
2022/06/30 00:17:06;;;;;;;28.85;15.57;;;;;;;20.31;72.51;100693.84;5055640;28;20049;-56
2022/06/30 00:19:34;;;;;;;25.50;15.45;;;;;;;20.28;72.58;100697.00;5055700;28;20517;-56
2022/06/30 00:22:01;;;;;;;23.13;15.30;;;;;;;20.30;72.63;100694.91;5038586;28;20044;-56
2022/06/30 00:24:28;;;;;;;26.05;14.80;;;;;;;20.31;72.25;100693.03;5035292;28;20045;-57
2022/06/30 00:26:55;;;;;;;25.60;14.98;;;;;;;20.30;72.04;100676.06;5055642;28;20049;-56
2022/06/30 00:29:22;;;;;;;22.38;15.07;;;;;;;20.23;72.44;100682.50;5055825;28;20099;-56
2022/06/30 00:31:49;;;;;;;23.52;16.10;;;;;;;20.29;72.23;100682.47;5055435;28;20048;-57
2022/06/30 00:34:15;;;;;;;21.73;15.38;;;;;;;20.29;72.46;100670.88;5054867;28;20041;-57
2022/06/30 00:36:43;;;;;;;23.75;14.68;;;;;;;20.29;72.32;100665.50;5055009;28;20399;-56
2022/06/30 00:39:11;;;;;;;22.75;15.63;;;;;;;20.28;72.42;100669.22;5055387;28;20497;-56
2022/06/30 00:41:40;;;;;;;23.65;16.10;;;;;;;20.27;72.77;100672.97;5054610;28;20106;-56
2022/06/30 00:44:10;;;;;;;23.73;14.32;;;;;;;20.26;73.17;100666.75;5054301;28;20407;-56
2022/06/30 00:46:37;;;;;;;27.13;14.80;;;;;;;20.28;72.90;100664.69;5054862;28;20072;-57
2022/06/30 00:49:05;;;;;;;23.13;15.05;;;;;;;20.24;72.96;100671.53;5055487;28;20057;-56
2022/06/30 00:51:31;;;;;;;31.77;15.38;;;;;;;20.22;72.91;100670.94;5054817;28;20498;-56
2022/06/30 00:54:01;;;;;;;26.70;15.18;;;;;;;20.24;73.13;100668.84;5055187;28;20048;-56
2022/06/30 00:56:30;;;;;;;24.27;15.40;;;;;;;20.22;73.21;100662.03;5055172;28;20059;-56
2022/06/30 00:59:02;;;;;;;27.58;15.02;;;;;;;20.27;73.05;100656.81;5053784;28;20080;-56
2022/06/30 01:01:29;;;;;;;;;;;;;;;20.18;73.21;100661.66;5054876;28;20102;-57
2022/06/30 01:03:58;;;;;;;26.63;14.57;;;;;;;20.28;73.01;100655.75;5054960;28;19921;-58
2022/06/30 01:06:26;;;;;;;22.75;14.50;;;;;;;20.20;73.02;100659.56;5054826;28;20067;-56
2022/06/30 01:08:53;;;;;;;22.35;14.82;;;;;;;20.19;73.52;100659.78;5054975;28;20049;-57
2022/06/30 01:14:07;;;;;;;25.25;14.90;;;;;;;20.12;73.81;100657.16;5043066;28;20500;-56
2022/06/30 01:16:37;;;;;;;23.15;14.98;;;;;;;20.06;74.06;100656.13;5034378;28;20046;-56
2022/06/30 01:19:04;;;;;;;26.02;15.15;;;;;;;19.99;74.08;100654.53;5035604;28;20077;-56
2022/06/30 01:21:31;;;;;;;22.50;14.75;;;;;;;20.00;74.14;100662.41;5033155;28;20045;-57
2022/06/30 01:23:58;;;;;;;26.48;15.82;;;;;;;19.99;73.83;100660.75;5039688;28;20044;-56
2022/06/30 01:26:27;;;;;;;23.38;15.93;;;;;;;19.90;74.43;100659.34;5054321;28;20072;-57
2022/06/30 01:28:55;;;;;;;22.55;15.32;;;;;;;19.92;74.51;100663.50;5054212;28;20048;-57
2022/06/30 01:31:23;;;;;;;33.35;15.88;;;;;;;19.88;75.11;100654.22;5054577;28;20114;-56
2022/06/30 01:33:50;;;;;;;25.75;16.23;;;;;;;19.85;75.11;100661.91;5053275;28;20407;-57
2022/06/30 01:36:17;;;;;;;28.23;15.30;;;;;;;19.86;75.16;100671.59;5053948;28;20068;-57
2022/06/30 01:38:44;;;;;;;22.98;15.40;;;;;;;19.75;75.41;100668.59;5054382;28;20052;-57
2022/06/30 01:41:12;;;;;;;25.08;16.58;;;;;;;19.78;75.89;100669.19;5053675;28;20077;-56
2022/06/30 01:43:39;;;;;;;22.67;16.25;;;;;;;19.72;75.98;100660.09;5054057;28;20131;-56
2022/06/30 01:46:06;;;;;;;23.63;15.45;;;;;;;19.71;76.27;100656.53;5054074;28;20037;-57
2022/06/30 01:48:32;;;;;;;23.85;15.60;;;;;;;19.72;76.53;100655.53;5053094;28;20055;-57
2022/06/30 01:50:59;;;;;;;24.40;14.90;;;;;;;19.71;76.77;100650.34;5053614;28;20453;-56
2022/06/30 01:53:25;;;;;;;24.00;15.05;;;;;;;19.66;76.85;100645.59;5054216;28;20060;-56
2022/06/30 01:55:52;;;;;;;22.60;15.00;;;;;;;19.67;76.67;100651.84;5053473;28;20099;-55
2022/06/30 01:58:20;;;;;;;21.25;15.27;;;;;;;19.65;77.11;100656.59;5054068;28;20151;-56
2022/06/30 02:00:47;;;;;;;23.77;15.88;;;;;;;19.65;77.18;100651.22;5053996;28;20049;-56
2022/06/30 02:03:13;;;;;;;23.27;16.15;;;;;;;19.64;77.16;100649.56;5053596;28;20048;-57
2022/06/30 02:05:41;;;;;;;21.05;14.77;;;;;;;19.66;77.24;100653.69;5053067;28;20076;-57
2022/06/30 02:08:07;;;;;;;22.23;14.50;;;;;;;19.66;76.94;100650.16;5053933;28;20127;-57
2022/06/30 02:10:34;;;;;;;33.05;16.15;;;;;;;19.63;77.10;100656.81;5053684;28;20107;-57
2022/06/30 02:13:01;;;;;;;25.02;15.77;;;;;;;19.59;77.55;100660.16;5053536;28;20048;-57
2022/06/30 02:15:32;;;;;;;24.23;16.02;;;;;;;19.61;77.69;100661.59;5053384;28;20056;-57
2022/06/30 02:18:01;;;;;;;23.70;15.60;;;;;;;19.54;78.29;100663.50;5053216;28;20549;-57
2022/06/30 02:20:28;;;;;;;25.48;15.48;;;;;;;19.59;78.13;100665.53;5053433;28;20045;-57
2022/06/30 02:22:58;;;;;;;26.42;15.35;;;;;;;19.55;77.66;100675.88;5053359;28;20064;-57
2022/06/30 02:25:27;;;;;;;25.70;15.65;;;;;;;19.45;78.00;100678.25;5053534;28;20037;-57
2022/06/30 02:27:55;;;;;;;24.40;15.57;;;;;;;19.46;78.02;100675.31;5053564;28;20051;-57
2022/06/30 02:30:22;;;;;;;23.95;16.17;;;;;;;19.39;78.81;100669.13;5053086;28;20044;-57
2022/06/30 02:32:49;;;;;;;27.35;15.48;;;;;;;19.44;78.84;100676.56;5053059;28;20482;-57
2022/06/30 02:35:16;;;;;;;26.58;15.90;;;;;;;19.27;79.42;100673.56;5052319;28;20044;-57
2022/06/30 02:37:43;;;;;;;23.20;14.77;;;;;;;19.37;79.61;100680.13;5053417;28;20049;-57
2022/06/30 02:40:10;;;;;;;23.20;15.50;;;;;;;19.33;79.01;100673.50;5052928;28;20044;-58
2022/06/30 02:42:37;;;;;;;25.13;14.68;;;;;;;19.35;79.04;100678.66;5053245;28;20059;-57
2022/06/30 02:45:05;;;;;;;20.65;15.10;;;;;;;19.40;79.66;100678.03;5053005;28;20483;-57
2022/06/30 02:47:33;;;;;;;25.88;15.48;;;;;;;19.45;79.89;100678.25;5053134;28;20052;-57
2022/06/30 02:50:05;;;;;;;26.70;15.30;;;;;;;19.55;79.31;100675.88;5053470;28;20049;-57
2022/06/30 02:52:34;;;;;;;23.40;15.18;;;;;;;19.47;79.15;100674.28;5052973;28;20487;-57
2022/06/30 02:55:02;;;;;;;23.70;15.20;;;;;;;19.35;79.55;100673.28;5053395;28;20075;-57
2022/06/30 02:57:29;;;;;;;22.55;15.15;;;;;;;19.35;79.59;100673.28;5053156;28;20045;-57
2022/06/30 02:59:57;;;;;;;24.42;14.73;;;;;;;19.35;79.77;100674.13;5053009;28;20048;-57
2022/06/30 03:02:24;;;;;;;23.45;15.43;;;;;;;19.33;79.90;100672.69;5053086;28;20135;-56
2022/06/30 03:04:51;;;;;;;26.80;16.00;;;;;;;19.36;79.75;100667.72;5052500;28;20487;-56
2022/06/30 03:07:18;;;;;;;24.60;15.65;;;;;;;19.41;79.85;100671.63;5052864;28;20458;-56
2022/06/30 03:09:44;;;;;;;26.42;15.63;;;;;;;19.36;80.20;100675.78;5053064;28;20544;-56
2022/06/30 03:12:11;;;;;;;25.00;15.32;;;;;;;19.37;79.89;100673.91;5053272;28;20131;-56
2022/06/30 03:14:38;;;;;;;22.15;15.35;;;;;;;19.38;79.61;100679.06;5045758;28;20049;-56
2022/06/30 03:17:05;;;;;;;26.80;15.73;;;;;;;19.35;79.44;100671.44;5032328;28;20038;-56
2022/06/30 03:19:32;;;;;;;23.95;14.70;;;;;;;19.43;79.54;100673.06;5032279;28;20076;-57
2022/06/30 03:21:58;;;;;;;23.30;14.82;;;;;;;19.33;79.52;100670.81;5033279;28;20049;-56
2022/06/30 03:24:25;;;;;;;28.83;15.10;;;;;;;19.43;79.49;100669.53;5035369;28;20049;-57
2022/06/30 03:26:52;;;;;;;21.90;14.98;;;;;;;19.41;79.77;100667.09;5036482;28;20798;-56
2022/06/30 03:29:19;;;;;;;24.58;15.50;;;;;;;19.41;79.69;100672.47;5044791;28;20376;-56
2022/06/30 03:31:46;;;;;;;23.23;14.90;;;;;;;19.41;79.79;100675.16;5056830;28;20049;-56
2022/06/30 03:34:13;;;;;;;29.00;15.30;;;;;;;19.47;79.34;100682.34;5056053;28;20491;-57
2022/06/30 03:36:39;;;;;;;25.27;15.38;;;;;;;19.41;80.01;100679.69;5056604;28;20071;-57
2022/06/30 03:39:06;;;;;;;24.90;15.30;;;;;;;19.37;80.10;100685.50;5056977;28;20103;-56
2022/06/30 03:41:33;;;;;;;29.55;15.27;;;;;;;19.35;80.29;100671.44;5056109;28;20055;-57
2022/06/30 03:43:59;;;;;;;24.55;15.48;;;;;;;19.37;80.42;100677.44;5056296;28;20094;-56
2022/06/30 03:46:26;;;;;;;27.15;15.93;;;;;;;19.38;80.38;100672.88;5056058;28;20037;-56
2022/06/30 03:48:53;;;;;;;26.10;15.45;;;;;;;19.35;80.55;100667.91;5056513;28;20198;-57
2022/06/30 03:51:19;;;;;;;25.67;15.60;;;;;;;19.31;80.55;100670.22;5056327;28;20104;-57
2022/06/30 03:53:46;;;;;;;23.20;15.07;;;;;;;19.34;80.53;100672.47;5056502;28;20080;-57
2022/06/30 03:56:13;;;;;;;28.27;15.55;;;;;;;19.36;80.67;100670.41;5055647;28;20124;-56
2022/06/30 03:58:40;;;;;;;24.42;15.88;;;;;;;19.36;80.75;100667.72;5056280;28;20074;-57
2022/06/30 04:01:07;;;;;;;26.48;15.10;;;;;;;19.21;80.89;100669.00;5055978;28;20052;-56
2022/06/30 04:03:34;;;;;;;22.45;15.40;;;;;;;19.20;80.91;100662.81;5055603;28;20091;-56
2022/06/30 04:06:01;;;;;;;27.77;16.08;;;;;;;19.19;80.93;100655.78;5055925;28;20041;-56
2022/06/30 04:08:28;;;;;;;23.70;15.00;;;;;;;19.22;80.75;100658.03;5055942;28;20114;-56
2022/06/30 04:10:54;;;;;;;22.90;13.70;;;;;;;19.15;80.53;100650.00;5056023;28;20502;-56
2022/06/30 04:13:21;;;;;;;24.77;14.77;;;;;;;19.09;80.59;100645.47;5055846;28;20068;-56
2022/06/30 04:15:48;;;;;;;23.02;13.93;;;;;;;19.06;80.63;100651.28;5055972;28;20060;-56
2022/06/30 04:18:15;;;;;;;21.85;14.13;;;;;;;19.17;80.63;100656.00;5055827;28;20491;-56
2022/06/30 04:20:41;;;;;;;24.33;13.90;;;;;;;19.11;80.59;100651.47;5055806;28;20052;-56
2022/06/30 04:23:08;;;;;;;20.48;13.73;;;;;;;19.20;80.25;100662.81;5055982;28;20095;-56
2022/06/30 04:25:35;;;;;;;20.33;13.40;;;;;;;19.23;79.90;100654.34;5055437;28;20441;-56
2022/06/30 04:28:03;;;;;;;20.67;14.18;;;;;;;19.31;79.63;100651.38;5055400;28;20499;-56
2022/06/30 04:33:16;;;;;;;23.58;13.55;;;;;;;19.34;80.37;100650.16;5055164;28;20040;-56
2022/06/30 04:35:43;;;;;;;31.13;13.55;;;;;;;19.33;79.90;100656.56;5055194;28;20474;-56
2022/06/30 04:38:10;;;;;;;24.88;14.43;;;;;;;19.33;80.12;100653.88;5055426;28;20147;-56
2022/06/30 04:43:23;;;;;;;23.20;14.40;;;;;;;19.25;80.15;100644.19;5055084;28;20132;-56
2022/06/30 04:45:50;;;;;;;23.42;15.55;;;;;;;19.32;80.50;100642.28;5055251;28;20041;-56
2022/06/30 04:48:17;;;;;;;20.42;14.57;;;;;;;19.38;80.45;100638.72;5055049;28;20045;-56
2022/06/30 04:50:43;;;;;;;25.67;16.10;;;;;;;19.37;80.28;100634.41;5055399;28;20060;-56
2022/06/30 04:53:10;;;;;;;29.52;15.20;;;;;;;19.43;80.13;100635.41;5054829;28;20410;-56
2022/06/30 04:55:37;;;;;;;29.20;16.15;;;;;;;19.49;79.70;100633.72;5055090;28;20069;-57
2022/06/30 04:58:04;;;;;;;24.60;15.20;;;;;;;19.43;80.53;100638.09;5049338;28;20049;-56
2022/06/30 05:00:31;;;;;;;26.98;15.15;;;;;;;19.45;80.37;100641.41;5055166;28;20102;-56
2022/06/30 05:02:58;;;;;;;27.65;15.80;;;;;;;19.51;80.58;100637.00;5054980;28;20494;-56
2022/06/30 05:05:26;;;;;;;28.20;16.65;;;;;;;19.57;79.95;100641.53;5054274;28;20095;-56
2022/06/30 05:07:53;;;;;;;26.02;16.70;;;;;;;19.66;79.70;100634.03;5054700;28;20068;-56
2022/06/30 05:10:20;;;;;;;23.00;16.55;;;;;;;19.62;80.21;100630.13;5054837;28;20048;-55
2022/06/30 05:12:47;;;;;;;28.52;17.77;;;;;;;19.56;80.29;100632.63;5035630;28;20049;-55
2022/06/30 05:15:14;;;;;;;26.15;17.35;;;;;;;19.69;80.10;100636.28;5037721;28;20102;-55
2022/06/30 05:17:40;;;;;;;26.63;17.23;;;;;;;19.79;79.57;100644.72;5034756;28;20053;-55
2022/06/30 05:20:08;;;;;;;27.35;17.25;;;;;;;19.71;79.76;100642.28;5034818;28;20053;-55
2022/06/30 05:22:35;;;;;;;32.03;18.40;;;;;;;19.83;79.22;100645.13;5034740;28;20373;-55
2022/06/30 05:27:49;;;;;;;31.30;17.75;;;;;;;19.86;79.69;100639.31;5034446;28;20459;-55
2022/06/30 05:30:15;;;;;;;28.92;17.88;;;;;;;19.83;79.49;100643.28;5033980;28;20067;-56
2022/06/30 05:32:44;;;;;;;27.50;17.90;;;;;;;19.88;79.50;100639.91;5034582;28;20499;-56
2022/06/30 05:35:12;;;;;;;34.05;18.52;;;;;;;19.88;79.54;100642.59;5034360;28;20107;-56
2022/06/30 05:37:39;;;;;;;29.35;18.10;;;;;;;19.80;79.72;100650.94;5034658;28;20049;-56
2022/06/30 05:40:06;;;;;;;27.77;17.88;;;;;;;19.88;79.29;100650.69;5045800;28;20045;-55
2022/06/30 05:42:34;;;;;;;29.42;17.70;;;;;;;19.88;79.88;100646.13;5054102;28;20044;-56
2022/06/30 05:45:00;;;;;;;26.73;18.10;;;;;;;19.91;79.21;100651.06;5054025;28;20122;-56
2022/06/30 05:47:28;;;;;;;24.52;17.20;;;;;;;19.88;79.06;100635.38;5053440;28;20401;-55
2022/06/30 05:49:55;;;;;;;29.65;17.25;;;;;;;20.03;78.94;100640.44;5052884;28;20041;-57
2022/06/30 05:52:22;;;;;;;27.70;17.20;;;;;;;20.08;77.52;100639.75;5053849;28;20111;-55
2022/06/30 05:54:49;;;;;;;24.67;15.10;;;;;;;20.09;78.40;100639.53;5039620;28;20513;-55
2022/06/30 05:57:15;;;;;;;28.73;16.45;;;;;;;20.17;77.69;100630.34;5033654;28;20523;-55
2022/06/30 05:59:42;;;;;;;27.88;15.02;;;;;;;20.23;77.96;100642.13;5033883;28;20111;-56
2022/06/30 06:02:09;;;;;;;24.25;15.38;;;;;;;20.24;77.00;100641.09;5043033;28;20446;-56
2022/06/30 06:04:36;;;;;;;23.88;15.90;;;;;;;20.23;76.84;100636.72;5048965;28;20128;-56
2022/06/30 06:07:04;;;;;;;24.65;15.07;;;;;;;20.31;77.32;100642.66;5061434;28;20125;-48
2022/06/30 06:09:30;;;;;;;25.02;15.90;;;;;;;20.38;76.76;100645.31;5051647;28;20068;-48
2022/06/30 06:11:57;;;;;;;25.35;16.73;;;;;;;20.45;76.49;100645.25;5057397;28;20407;-49
2022/06/30 06:14:24;;;;;;;27.85;15.80;;;;;;;20.45;76.60;100645.25;5062492;28;20049;-48
2022/06/30 06:16:51;;;;;;;25.20;15.43;;;;;;;20.46;76.64;100652.28;5064909;28;20393;-48
2022/06/30 06:19:17;;;;;;;33.65;16.52;;;;;;;20.49;76.71;100652.66;5044022;28;20133;-48
2022/06/30 06:21:48;;;;;;;23.02;15.95;;;;;;;20.53;76.84;100653.03;5067900;28;20047;-49
2022/06/30 06:24:16;;;;;;;26.55;15.57;;;;;;;20.52;76.52;100654.94;5059002;28;20105;-49
2022/06/30 06:26:43;;;;;;;22.45;15.05;;;;;;;20.62;75.43;100659.81;5052830;28;20534;-49
2022/06/30 06:29:10;;;;;;;27.42;15.95;;;;;;;20.79;74.41;100653.84;5046875;28;20045;-51
2022/06/30 06:31:39;;;;;;;24.45;16.05;;;;;;;20.77;74.80;100656.75;5068910;28;20053;-48
2022/06/30 06:34:07;;;;;;;23.75;15.13;;;;;;;20.76;74.97;100652.44;5052886;28;20091;-50
2022/06/30 06:36:34;;;;;;;24.23;15.75;;;;;;;20.84;74.07;100657.53;5061049;28;20552;-50
2022/06/30 06:39:02;;;;;;;26.98;15.82;;;;;;;20.89;74.37;100659.56;5064853;28;20101;-49
2022/06/30 06:41:28;;;;;;;28.05;17.42;;;;;;;20.93;73.84;100665.31;5060449;28;20525;-48
2022/06/30 06:43:55;;;;;;;23.35;16.10;;;;;;;20.94;74.17;100659.72;5053183;28;20045;-51
2022/06/30 06:46:26;;;;;;;27.48;18.33;;;;;;;20.96;74.25;100657.63;5049776;28;20045;-50
2022/06/30 06:48:55;;;;;;;29.30;17.00;;;;;;;20.99;74.56;100662.56;5047461;28;20105;-52
2022/06/30 06:51:22;;;;;;;24.73;15.52;;;;;;;20.96;75.34;100660.31;5043080;28;20487;-49
2022/06/30 06:53:49;;;;;;;28.65;15.73;;;;;;;20.98;75.21;100663.59;5048375;28;20057;-51
2022/06/30 06:56:16;;;;;;;26.13;15.93;;;;;;;21.07;74.08;100656.84;5052510;28;20041;-51
2022/06/30 06:58:43;;;;;;;23.30;15.75;;;;;;;21.18;73.29;100655.28;5045297;28;20542;-49
2022/06/30 07:01:10;;;;;;;29.35;16.10;;;;;;;21.17;73.59;100655.50;5053638;28;20068;-49
2022/06/30 07:03:38;;;;;;;29.30;15.55;;;;;;;21.13;74.70;100657.81;5052819;28;20128;-51
2022/06/30 07:06:06;;;;;;;24.05;15.88;;;;;;;21.18;75.07;100660.66;5046969;28;20427;-49
2022/06/30 07:08:33;;;;;;;24.70;15.40;;;;;;;21.28;73.59;100662.81;5058351;28;20091;-51
2022/06/30 07:11:01;;;;;;;26.20;14.82;;;;;;;21.32;71.59;100655.94;5049360;28;20438;-52
2022/06/30 07:13:27;;;;;;;23.85;14.00;;;;;;;21.65;70.03;100652.00;5068332;28;20493;-51
2022/06/30 07:15:54;;;;;;;26.02;14.40;;;;;;;21.61;71.74;100667.84;5066551;28;20498;-52
2022/06/30 07:18:21;;;;;;;26.10;11.77;;;;;;;21.64;68.40;100664.66;5059439;28;20517;-51
2022/06/30 07:20:48;;;;;;;19.60;10.02;;;;;;;21.86;63.58;100666.84;5055768;28;20052;-49
2022/06/30 07:23:16;;;;;;;20.17;8.70;;;;;;;22.12;58.41;100670.19;5056616;28;20045;-52
2022/06/30 07:25:58;;;;;;;24.33;10.13;;;;;;;22.14;60.61;100677.00;5046386;28;20041;-51
2022/06/30 07:28:25;;;;;;;22.52;12.23;;;;;;;22.13;62.73;100686.16;5059252;28;20040;-50
2022/06/30 07:31:13;;;;;;;20.70;11.13;;;;;;;22.02;65.05;100681.56;5068633;28;20402;-48
2022/06/30 07:33:42;;;;;;;24.38;12.43;;;;;;;22.15;63.17;100675.94;5059977;28;20033;-50
2022/06/30 07:36:09;;;;;;;17.67;10.27;;;;;;;22.16;63.09;100680.31;5066911;28;20040;-51
2022/06/30 07:38:35;;;;;;;16.88;8.95;;;;;;;22.32;61.15;100688.78;5049763;28;20041;-48
2022/06/30 07:41:02;;;;;;;17.05;9.77;;;;;;;22.53;60.73;100690.13;5048309;28;20049;-57
2022/06/30 07:43:29;;;;;;;24.38;9.57;;;;;;;22.41;61.89;100682.00;5070011;28;20052;-57
2022/06/30 07:45:55;;;;;;;16.77;8.10;;;;;;;22.30;61.27;100689.03;5057426;28;20044;-57
2022/06/30 07:48:22;;;;;;;17.65;7.95;;;;;;;22.45;59.87;100693.16;5063490;28;20049;-57
2022/06/30 07:50:49;;;;;;;20.40;7.80;;;;;;;22.56;59.16;100693.19;5069111;28;20144;-56
2022/06/30 07:53:16;;;;;;;16.85;7.40;;;;;;;22.56;59.86;100687.78;5058418;28;20560;-56
2022/06/30 07:55:43;;;;;;;19.15;7.60;;;;;;;22.73;57.83;100690.56;5043644;28;20102;-56
2022/06/30 07:58:10;;;;;;;16.02;8.10;;;;;;;22.76;58.42;100694.72;5067388;28;20106;-57
2022/06/30 08:00:37;;;;;;;16.45;8.27;;;;;;;22.78;59.45;100690.69;5046646;28;20439;-56
2022/06/30 08:03:03;;;;;;;27.95;8.40;;;;;;;22.79;58.59;100695.06;5046000;28;20053;-56
2022/06/30 08:05:30;;;;;;;17.52;7.72;;;;;;;22.78;59.46;100695.28;5069431;28;20044;-57
2022/06/30 08:07:58;;;;;;;15.43;7.72;;;;;;;22.91;58.13;100697.75;5060193;28;20363;-57
2022/06/30 08:10:24;;;;;;;16.55;6.50;;;;;;;23.17;55.44;100711.84;5064515;28;20049;-57
2022/06/30 08:12:51;;;;;;;22.67;6.82;;;;;;;23.17;53.85;100698.31;5061994;28;20059;-57
2022/06/30 08:15:18;;;;;;;16.75;7.07;;;;;;;23.24;54.45;100706.31;5045930;28;20102;-57
2022/06/30 08:17:44;;;;;;;26.02;6.90;;;;;;;23.18;54.61;100705.38;5052951;28;20056;-57
2022/06/30 08:20:11;;;;;;;20.73;6.85;;;;;;;23.32;53.54;100697.81;5041944;28;20094;-57
2022/06/30 08:22:38;;;;;;;14.52;6.47;;;;;;;23.40;53.93;100699.31;5059672;28;20102;-57
2022/06/30 08:25:05;;;;;;;16.17;6.40;;;;;;;23.53;54.10;100702.56;5069638;28;20047;-56
2022/06/30 08:27:32;;;;;;;15.13;6.47;;;;;;;23.44;54.53;100693.19;5051092;28;20033;-61
2022/06/30 08:29:59;;;;;;;16.30;6.20;;;;;;;23.60;53.10;100691.59;5043606;28;20068;-64
2022/06/30 08:32:26;;;;;;;17.40;6.03;;;;;;;23.67;54.96;100691.47;5046273;28;20049;-64
2022/06/30 08:34:53;;;;;;;14.88;6.07;;;;;;;23.86;51.82;100697.50;5061276;28;20044;-63
2022/06/30 08:37:19;;;;;;;16.48;5.80;;;;;;;23.74;52.01;100695.66;5056129;28;20095;-63
2022/06/30 08:42:36;;;;;;;22.55;10.55;;;;;;;24.00;51.41;100695.31;5063944;28;20137;-64
2022/06/30 08:45:18;;;;;;;15.30;5.30;;;;;;;24.00;49.93;100698.03;5052353;28;20041;-64
2022/06/30 08:47:46;;;;;;;18.27;6.10;;;;;;;24.28;47.69;100686.28;5048085;28;20480;-64
2022/06/30 08:50:14;;;;;;;18.67;5.78;;;;;;;24.36;47.45;100693.19;5064726;28;20045;-64
2022/06/30 08:52:46;;;;;;;19.42;6.15;;;;;;;24.37;47.82;100694.84;5065417;28;20052;-64
2022/06/30 08:55:14;;;;;;;26.70;6.25;;;;;;;24.41;48.03;100696.78;5054125;28;20049;-65
2022/06/30 08:57:43;;;;;;;21.83;5.78;;;;;;;24.40;49.01;100692.47;5032868;28;20064;-64
2022/06/30 09:00:12;;;;;;;15.82;6.10;;;;;;;24.50;48.51;100697.22;5042648;28;20048;-64
2022/06/30 09:02:39;;;;;;;19.50;7.90;;;;;;;24.47;49.29;100686.88;5050115;28;20505;-64
2022/06/30 09:05:07;;;;;;;26.40;5.70;;;;;;;24.56;49.96;100690.84;5055545;28;20045;-64
2022/06/30 09:07:34;;;;;;;18.27;5.80;;;;;;;24.69;48.31;100692.38;5067083;28;20047;-64
2022/06/30 09:10:03;;;;;;;18.30;7.30;;;;;;;24.67;48.94;100689.91;5039346;28;20049;-64
2022/06/30 09:12:30;;;;;;;23.13;6.80;;;;;;;24.69;50.59;100684.25;5044591;28;20049;-64
2022/06/30 09:14:57;;;;;;;22.55;6.32;;;;;;;25.05;47.50;100682.00;5067757;28;20135;-64
2022/06/30 09:17:26;;;;;;;20.50;6.28;;;;;;;25.05;50.15;100680.13;5053310;28;20418;-64
2022/06/30 09:19:58;;;;;;;18.00;6.45;;;;;;;25.23;47.24;100681.69;5058472;28;20051;-64
2022/06/30 09:22:29;;;;;;;17.48;5.90;;;;;;;25.26;46.65;100680.41;5048754;28;20517;-65
2022/06/30 09:24:58;;;;;;;20.77;6.00;;;;;;;25.25;48.06;100681.44;5063600;28;20409;-65
2022/06/30 09:27:29;;;;;;;17.45;6.47;;;;;;;25.23;48.21;100679.00;5052582;28;21849;-64
2022/06/30 09:30:03;;;;;;;22.40;6.60;;;;;;;25.42;47.28;100684.94;5054232;28;20036;-64
2022/06/30 09:32:48;;;;;;;25.40;6.65;;;;;;;25.15;47.54;100684.03;5060712;28;20120;-65
2022/06/30 09:35:17;;;;;;;20.25;6.53;;;;;;;25.36;47.75;100688.66;5051262;28;20055;-63
2022/06/30 09:37:44;;;;;;;23.67;7.72;;;;;;;25.37;48.54;100682.16;5043969;28;20439;-64
2022/06/30 09:40:12;;;;;;;27.13;7.28;;;;;;;25.16;47.79;100680.22;5046762;28;20098;-63
2022/06/30 09:42:45;;;;;;;19.55;7.10;;;;;;;25.43;48.07;100677.59;5050717;28;20045;-64
2022/06/30 09:45:37;;;;;;;20.95;6.63;;;;;;;25.54;48.35;100664.94;5063835;28;20075;-64
2022/06/30 09:48:05;;;;;;;20.75;7.00;;;;;;;25.48;48.42;100666.78;5041544;28;20100;-64
2022/06/30 09:50:31;;;;;;;20.70;7.07;;;;;;;25.60;48.45;100672.09;5043299;28;20183;-64
2022/06/30 09:53:09;;;;;;;21.80;6.72;;;;;;;25.78;47.84;100666.28;5063145;28;20040;-63
2022/06/30 09:55:42;;;;;;;15.98;6.82;;;;;;;26.01;47.84;100667.91;5069206;28;20055;-64
2022/06/30 09:58:10;;;;;;;20.23;6.70;;;;;;;26.11;47.33;100660.91;5042215;28;20045;-64
2022/06/30 10:00:52;;;;;;;23.27;7.70;;;;;;;26.38;45.93;100669.00;5051037;28;20048;-63
2022/06/30 10:03:19;;;;;;;20.67;6.97;;;;;;;26.24;47.16;100672.13;5066167;28;20045;-63
2022/06/30 10:05:49;;;;;;;18.15;7.00;;;;;;;26.16;47.28;100667.19;5045545;28;20040;-64
2022/06/30 10:08:18;;;;;;;24.52;7.05;;;;;;;26.40;44.71;100673.06;5072029;28;20059;-63
2022/06/30 10:10:46;;;;;;;22.70;6.95;;;;;;;26.57;43.92;100669.38;5054136;28;20047;-63
2022/06/30 10:13:15;;;;;;;18.95;6.45;;;;;;;26.56;44.68;100668.56;5050343;28;20052;-64
2022/06/30 10:15:48;;;;;;;19.80;5.90;;;;;;;26.63;45.14;100671.06;5041562;28;20052;-64
2022/06/30 10:18:16;;;;;;;21.42;6.25;;;;;;;26.57;45.49;100664.75;5046813;28;20124;-64
2022/06/30 10:20:45;;;;;;;23.48;6.30;;;;;;;26.76;45.64;100664.31;5052872;28;20061;-64
2022/06/30 10:23:13;;;;;;;41.28;17.40;;;;;;;26.83;45.48;100661.38;5056530;28;20041;-63
2022/06/30 10:25:41;;;;;;;30.85;9.60;;;;;;;26.73;45.03;100651.28;5036687;28;20052;-63
2022/06/30 10:28:08;;;;;;;40.40;19.33;;;;;;;26.97;45.46;100655.19;5051902;28;20781;-63
2022/06/30 10:30:46;;;;;;;20.77;8.15;;;;;;;26.67;45.21;100658.59;5052663;28;20051;-64
2022/06/30 10:33:23;;;;;;;25.38;11.45;;;;;;;26.76;45.67;100654.28;5052833;28;20080;-63
2022/06/30 10:36:00;;;;;;;23.40;10.65;;;;;;;26.74;45.06;100648.28;5049596;28;20505;-63
2022/06/30 10:38:50;;;;;;;18.08;6.47;;;;;;;26.73;44.69;100654.00;5052004;28;20575;-64
2022/06/30 10:41:18;;;;;;;13.45;5.70;;;;;;;26.82;44.05;100644.25;5050508;28;20053;-64
2022/06/30 10:49:26;;;;;;;19.75;6.20;;;;;;;27.13;42.78;100658.78;5127031;27;20839;-63
2022/06/30 10:51:57;;;;;;;22.15;6.38;;;;;;;26.93;43.82;100651.38;5113619;28;20039;-63
2022/06/30 10:54:28;;;;;;;;;;;;;;;26.98;43.68;100647.84;5119843;28;20054;-63
2022/06/30 10:56:57;;;;;;;20.73;5.72;;;;;;;27.32;42.18;100658.34;5114683;28;20378;-63
2022/06/30 10:59:31;;;;;;;17.98;5.40;;;;;;;27.23;43.15;100657.19;5112432;28;20089;-63
2022/06/30 11:02:20;;;;;;;18.60;5.55;;;;;;;27.06;43.54;100649.25;5095411;28;20036;-64
2022/06/30 11:04:49;;;;;;;20.70;5.28;;;;;;;27.11;43.44;100654.72;5094619;28;20451;-63
2022/06/30 11:07:24;;;;;;;15.80;5.45;;;;;;;27.52;40.83;100647.50;5104566;28;20447;-64
2022/06/30 11:12:37;;;;;;;19.17;5.43;;;;;;;27.25;42.86;100644.13;5109619;27;20380;-64
2022/06/30 11:15:05;;;;;;;14.60;5.40;;;;;;;27.10;43.80;100650.34;5104502;28;20079;-64
2022/06/30 11:17:37;;;;;;;14.65;5.07;;;;;;;27.11;43.35;100652.00;5103675;28;20040;-64
2022/06/30 11:20:06;;;;;;;10.70;4.90;;;;;;;27.11;43.69;100649.28;5096274;28;20047;-64
2022/06/30 11:22:34;;;;;;;14.07;4.90;;;;;;;26.99;42.71;100644.84;5089309;28;20476;-63
2022/06/30 11:25:05;;;;;;;16.60;5.68;;;;;;;27.36;42.28;100637.63;5087325;28;20132;-63
2022/06/30 11:27:33;;;;;;;18.27;5.60;;;;;;;27.61;42.17;100642.31;5088918;28;20444;-63
2022/06/30 11:30:04;;;;;;;18.08;5.40;;;;;;;27.73;41.66;100645.63;5091567;28;20044;-63
2022/06/30 11:32:30;;;;;;;23.40;8.18;;;;;;;27.67;42.95;100645.88;5088876;28;20051;-63
2022/06/30 11:34:58;;;;;;;17.40;6.50;;;;;;;27.81;41.99;100632.53;5095758;28;20040;-63
2022/06/30 11:37:27;;;;;;;19.33;6.72;;;;;;;27.67;41.61;100635.81;5085776;28;20040;-63
2022/06/30 11:39:58;;;;;;;24.58;8.10;;;;;;;27.62;43.68;100632.25;5052182;28;20094;-63